DPOES EDAZ-EDRY
Flight info
| Callsign | DPOES |
|---|---|
| Flight time | 1h 27m |
| Altitude | 8000 |
| Route | BOLBO2A/25 BOLBO DCT TAMEB DCT ABUKA |
| Aircraft | PC12/L-SDFGRWY/S |
Departure
| Time | 2026-05-04 18:26 |
|---|---|
| Airport | Schönhagen Airfield (EDAZ) |
Arrival
| Time | 2026-05-04 19:54 |
|---|---|
| Airport | Speyer Airfield (EDRY) |
| Time | Latitude | Longitude | Altitude | Speed | Heading |
|---|---|---|---|---|---|
| 2026-05-04 18:06 | 52.20386 | 13.15230 | 137 ft | 0 kts | 76° |
| 2026-05-04 18:21 | 52.20387 | 13.15233 | 139 ft | 2 kts | 75° |
| 2026-05-04 18:21 | 52.20394 | 13.15290 | 139 ft | 7 kts | 105° |
| 2026-05-04 18:21 | 52.20359 | 13.15293 | 140 ft | 6 kts | 247° |
| 2026-05-04 18:21 | 52.20349 | 13.15226 | 139 ft | 7 kts | 255° |
| 2026-05-04 18:22 | 52.20337 | 13.15144 | 139 ft | 8 kts | 258° |
| 2026-05-04 18:22 | 52.20319 | 13.15035 | 133 ft | 12 kts | 256° |
| 2026-05-04 18:22 | 52.20290 | 13.14964 | 128 ft | 2 kts | 181° |
| 2026-05-04 18:22 | 52.20280 | 13.14967 | 129 ft | 0 kts | 163° |
| 2026-05-04 18:23 | 52.20279 | 13.14967 | 129 ft | 0 kts | 163° |
| 2026-05-04 18:23 | 52.20275 | 13.14969 | 129 ft | 3 kts | 161° |
| 2026-05-04 18:24 | 52.20257 | 13.14978 | 128 ft | 4 kts | 166° |
| 2026-05-04 18:24 | 52.20235 | 13.14989 | 131 ft | 0 kts | 146° |
| 2026-05-04 18:24 | 52.20230 | 13.15001 | 132 ft | 3 kts | 99° |
| 2026-05-04 18:24 | 52.20233 | 13.15020 | 133 ft | 2 kts | 56° |
| 2026-05-04 18:25 | 52.20241 | 13.15048 | 134 ft | 3 kts | 75° |
| 2026-05-04 18:25 | 52.20241 | 13.15049 | 134 ft | 0 kts | 76° |
| 2026-05-04 18:25 | 52.20257 | 13.15152 | 139 ft | 28 kts | 76° |
| 2026-05-04 18:25 | 52.20345 | 13.15723 | 135 ft | 76 kts | 76° |
| 2026-05-04 18:26 | 52.20513 | 13.16734 | 209 ft | 104 kts | 74° |
| 2026-05-04 18:26 | 52.20720 | 13.17924 | 517 ft | 112 kts | 75° |
| 2026-05-04 18:26 | 52.20932 | 13.19176 | 894 ft | 118 kts | 75° |
| 2026-05-04 18:26 | 52.21137 | 13.20449 | 1381 ft | 114 kts | 75° |
| 2026-05-04 18:27 | 52.21338 | 13.21733 | 1721 ft | 126 kts | 75° |
| 2026-05-04 18:27 | 52.21553 | 13.23271 | 1880 ft | 152 kts | 84° |
| 2026-05-04 18:27 | 52.21224 | 13.25022 | 1944 ft | 175 kts | 128° |
| 2026-05-04 18:27 | 52.20132 | 13.26066 | 1974 ft | 195 kts | 168° |
| 2026-05-04 18:28 | 52.18783 | 13.26423 | 1993 ft | 210 kts | 168° |
| 2026-05-04 18:28 | 52.17312 | 13.26810 | 2001 ft | 220 kts | 179° |
| 2026-05-04 18:28 | 52.15787 | 13.26392 | 2001 ft | 226 kts | 203° |
| 2026-05-04 18:28 | 52.14381 | 13.25208 | 2009 ft | 228 kts | 202° |
| 2026-05-04 18:29 | 52.12869 | 13.24580 | 2203 ft | 225 kts | 191° |
| 2026-05-04 18:29 | 52.11364 | 13.24195 | 2499 ft | 218 kts | 189° |
| 2026-05-04 18:29 | 52.09865 | 13.23825 | 2710 ft | 217 kts | 190° |
| 2026-05-04 18:29 | 52.08389 | 13.23434 | 2990 ft | 213 kts | 191° |
| 2026-05-04 18:30 | 52.05466 | 13.22613 | 3481 ft | 212 kts | 191° |
| 2026-05-04 18:30 | 52.04008 | 13.22193 | 3704 ft | 213 kts | 191° |
| 2026-05-04 18:30 | 52.02545 | 13.21769 | 3924 ft | 213 kts | 191° |
| 2026-05-04 18:31 | 52.01106 | 13.21351 | 4138 ft | 213 kts | 191° |
| 2026-05-04 18:31 | 51.99636 | 13.20925 | 4353 ft | 214 kts | 191° |
| 2026-05-04 18:31 | 51.98171 | 13.20500 | 4565 ft | 214 kts | 191° |
| 2026-05-04 18:31 | 51.96702 | 13.20075 | 4771 ft | 214 kts | 191° |
| 2026-05-04 18:32 | 51.95246 | 13.19654 | 4982 ft | 214 kts | 191° |
| 2026-05-04 18:32 | 51.93795 | 13.19236 | 5210 ft | 214 kts | 191° |
| 2026-05-04 18:32 | 51.92325 | 13.18812 | 5432 ft | 215 kts | 191° |
| 2026-05-04 18:32 | 51.90855 | 13.18388 | 5658 ft | 214 kts | 191° |
| 2026-05-04 18:33 | 51.89380 | 13.17962 | 5883 ft | 215 kts | 192° |
| 2026-05-04 18:33 | 51.87928 | 13.17544 | 6097 ft | 215 kts | 192° |
| 2026-05-04 18:33 | 51.86464 | 13.17122 | 6307 ft | 215 kts | 192° |
| 2026-05-04 18:33 | 51.84989 | 13.16698 | 6502 ft | 215 kts | 192° |
| 2026-05-04 18:34 | 51.83508 | 13.16271 | 6686 ft | 216 kts | 192° |
| 2026-05-04 18:34 | 51.82026 | 13.15846 | 6873 ft | 216 kts | 192° |
| 2026-05-04 18:34 | 51.80571 | 13.15330 | 7045 ft | 215 kts | 201° |
| 2026-05-04 18:34 | 51.79287 | 13.14129 | 7216 ft | 213 kts | 222° |
| 2026-05-04 18:35 | 51.78368 | 13.12265 | 7384 ft | 212 kts | 239° |
| 2026-05-04 18:35 | 51.77601 | 13.10257 | 7558 ft | 213 kts | 238° |
| 2026-05-04 18:35 | 51.76809 | 13.08243 | 7731 ft | 213 kts | 238° |
| 2026-05-04 18:35 | 51.76010 | 13.06218 | 7907 ft | 213 kts | 238° |
| 2026-05-04 18:36 | 51.75215 | 13.04196 | 8081 ft | 214 kts | 238° |
| 2026-05-04 18:36 | 51.74419 | 13.02167 | 8252 ft | 214 kts | 238° |
| 2026-05-04 18:36 | 51.73621 | 13.00130 | 8419 ft | 214 kts | 238° |
| 2026-05-04 18:36 | 51.72871 | 12.98212 | 8574 ft | 214 kts | 238° |
| 2026-05-04 18:37 | 51.72084 | 12.96204 | 8737 ft | 214 kts | 238° |
| 2026-05-04 18:37 | 51.71294 | 12.94192 | 8896 ft | 214 kts | 237° |
| 2026-05-04 18:37 | 51.70374 | 12.92397 | 9026 ft | 215 kts | 227° |
| 2026-05-04 18:37 | 51.69318 | 12.90674 | 9183 ft | 216 kts | 225° |
| 2026-05-04 18:38 | 51.68233 | 12.88995 | 9333 ft | 216 kts | 225° |
| 2026-05-04 18:38 | 51.67161 | 12.87370 | 9479 ft | 217 kts | 225° |
| 2026-05-04 18:38 | 51.66054 | 12.85702 | 9615 ft | 217 kts | 224° |
| 2026-05-04 18:38 | 51.64951 | 12.84045 | 9792 ft | 216 kts | 224° |
| 2026-05-04 18:39 | 51.63763 | 12.82542 | 9867 ft | 219 kts | 211° |
| 2026-05-04 18:39 | 51.62396 | 12.81448 | 9908 ft | 224 kts | 207° |
| 2026-05-04 18:39 | 51.60971 | 12.80444 | 9926 ft | 228 kts | 205° |
| 2026-05-04 18:39 | 51.59495 | 12.79452 | 9935 ft | 230 kts | 205° |
| 2026-05-04 18:40 | 51.57997 | 12.78462 | 9942 ft | 233 kts | 205° |
| 2026-05-04 18:40 | 51.56517 | 12.77476 | 9946 ft | 234 kts | 205° |
| 2026-05-04 18:40 | 51.55007 | 12.76469 | 9948 ft | 235 kts | 205° |
| 2026-05-04 18:40 | 51.53489 | 12.75457 | 9946 ft | 236 kts | 205° |
| 2026-05-04 18:41 | 51.51970 | 12.74444 | 9946 ft | 237 kts | 205° |
| 2026-05-04 18:41 | 51.50440 | 12.73424 | 9945 ft | 237 kts | 205° |
| 2026-05-04 18:41 | 51.48911 | 12.72406 | 9950 ft | 237 kts | 205° |
| 2026-05-04 18:41 | 51.47386 | 12.71390 | 9950 ft | 237 kts | 205° |
| 2026-05-04 18:42 | 51.45860 | 12.70375 | 9948 ft | 238 kts | 205° |
| 2026-05-04 18:42 | 51.44326 | 12.69355 | 9950 ft | 238 kts | 205° |
| 2026-05-04 18:42 | 51.42802 | 12.68331 | 9949 ft | 237 kts | 206° |
| 2026-05-04 18:42 | 51.41491 | 12.66788 | 9948 ft | 234 kts | 222° |
| 2026-05-04 18:43 | 51.40303 | 12.65045 | 9949 ft | 235 kts | 224° |
| 2026-05-04 18:43 | 51.39118 | 12.63236 | 9948 ft | 235 kts | 225° |
| 2026-05-04 18:43 | 51.37940 | 12.61408 | 9947 ft | 235 kts | 225° |
| 2026-05-04 18:43 | 51.36770 | 12.59576 | 9947 ft | 236 kts | 225° |
| 2026-05-04 18:44 | 51.35603 | 12.57729 | 9944 ft | 235 kts | 225° |
| 2026-05-04 18:44 | 51.34834 | 12.56502 | 9941 ft | 235 kts | 225° |
| 2026-05-04 18:44 | 51.33297 | 12.54045 | 9946 ft | 235 kts | 225° |
| 2026-05-04 18:44 | 51.32137 | 12.52189 | 9952 ft | 235 kts | 225° |
| 2026-05-04 18:45 | 51.30976 | 12.50331 | 9952 ft | 235 kts | 225° |
| 2026-05-04 18:45 | 51.29823 | 12.48469 | 9950 ft | 235 kts | 225° |
| 2026-05-04 18:45 | 51.28692 | 12.46621 | 9944 ft | 236 kts | 225° |
| 2026-05-04 18:45 | 51.27570 | 12.44780 | 9946 ft | 236 kts | 225° |
| 2026-05-04 18:46 | 51.26447 | 12.42937 | 9952 ft | 236 kts | 225° |
| 2026-05-04 18:46 | 51.25322 | 12.41022 | 9950 ft | 236 kts | 229° |
| 2026-05-04 18:46 | 51.24315 | 12.38941 | 9949 ft | 237 kts | 233° |
| 2026-05-04 18:46 | 51.23364 | 12.36832 | 9948 ft | 237 kts | 234° |
| 2026-05-04 18:47 | 51.22418 | 12.34684 | 9947 ft | 237 kts | 234° |
| 2026-05-04 18:47 | 51.21477 | 12.32525 | 9946 ft | 237 kts | 234° |
| 2026-05-04 18:47 | 51.20539 | 12.30368 | 9946 ft | 237 kts | 234° |
| 2026-05-04 18:47 | 51.19600 | 12.28209 | 9946 ft | 237 kts | 234° |
| 2026-05-04 18:48 | 51.18661 | 12.26049 | 9945 ft | 237 kts | 234° |
| 2026-05-04 18:48 | 51.17734 | 12.23918 | 9945 ft | 237 kts | 234° |
| 2026-05-04 18:48 | 51.16793 | 12.21755 | 9946 ft | 237 kts | 234° |
| 2026-05-04 18:48 | 51.15866 | 12.19595 | 9946 ft | 236 kts | 234° |
| 2026-05-04 18:49 | 51.14943 | 12.17428 | 9946 ft | 236 kts | 234° |
| 2026-05-04 18:49 | 51.14026 | 12.15275 | 9945 ft | 236 kts | 234° |
| 2026-05-04 18:49 | 51.13104 | 12.13112 | 9947 ft | 236 kts | 234° |
| 2026-05-04 18:49 | 51.12191 | 12.10973 | 9947 ft | 236 kts | 234° |
| 2026-05-04 18:50 | 51.11268 | 12.08811 | 9945 ft | 236 kts | 234° |
| 2026-05-04 18:50 | 51.10346 | 12.06653 | 9946 ft | 236 kts | 234° |
| 2026-05-04 18:50 | 51.09443 | 12.04539 | 9947 ft | 236 kts | 234° |
| 2026-05-04 18:50 | 51.08518 | 12.02377 | 9950 ft | 236 kts | 234° |
| 2026-05-04 18:51 | 51.07605 | 12.00246 | 9953 ft | 236 kts | 234° |
| 2026-05-04 18:51 | 51.06731 | 11.98032 | 9950 ft | 236 kts | 240° |
| 2026-05-04 18:51 | 51.05999 | 11.95685 | 9951 ft | 237 kts | 243° |
| 2026-05-04 18:51 | 51.05324 | 11.93349 | 9950 ft | 237 kts | 244° |
| 2026-05-04 18:52 | 51.04651 | 11.90951 | 9954 ft | 237 kts | 244° |
| 2026-05-04 18:52 | 51.03995 | 11.88571 | 9955 ft | 237 kts | 244° |
| 2026-05-04 18:52 | 51.03340 | 11.86161 | 9956 ft | 237 kts | 244° |
| 2026-05-04 18:52 | 51.02688 | 11.83749 | 9954 ft | 237 kts | 244° |
| 2026-05-04 18:53 | 51.02044 | 11.81362 | 9955 ft | 237 kts | 244° |
| 2026-05-04 18:53 | 51.01402 | 11.78968 | 9954 ft | 237 kts | 244° |
| 2026-05-04 18:53 | 51.00760 | 11.76565 | 9958 ft | 237 kts | 244° |
| 2026-05-04 18:53 | 51.00119 | 11.74159 | 9957 ft | 236 kts | 244° |
| 2026-05-04 18:54 | 50.99481 | 11.71764 | 9956 ft | 236 kts | 244° |
| 2026-05-04 18:54 | 50.98856 | 11.69403 | 9956 ft | 235 kts | 244° |
| 2026-05-04 18:54 | 50.98234 | 11.67070 | 9957 ft | 236 kts | 244° |
| 2026-05-04 18:54 | 50.97585 | 11.64662 | 9957 ft | 236 kts | 244° |
| 2026-05-04 18:55 | 50.96936 | 11.62252 | 9957 ft | 237 kts | 244° |
| 2026-05-04 18:55 | 50.95635 | 11.57435 | 9956 ft | 238 kts | 244° |
| 2026-05-04 18:55 | 50.95006 | 11.55112 | 9960 ft | 239 kts | 244° |
| 2026-05-04 18:56 | 50.94357 | 11.52715 | 9959 ft | 238 kts | 244° |
| 2026-05-04 18:56 | 50.93702 | 11.50304 | 9958 ft | 238 kts | 244° |
| 2026-05-04 18:56 | 50.93053 | 11.47915 | 9959 ft | 238 kts | 244° |
| 2026-05-04 18:56 | 50.92399 | 11.45503 | 9959 ft | 238 kts | 244° |
| 2026-05-04 18:57 | 50.91749 | 11.43106 | 9964 ft | 238 kts | 244° |
| 2026-05-04 18:57 | 50.91112 | 11.40758 | 9962 ft | 238 kts | 244° |
| 2026-05-04 18:57 | 50.90460 | 11.38353 | 9962 ft | 238 kts | 244° |
| 2026-05-04 18:57 | 50.89824 | 11.36014 | 9963 ft | 237 kts | 244° |
| 2026-05-04 18:58 | 50.89179 | 11.33612 | 9968 ft | 238 kts | 244° |
| 2026-05-04 18:58 | 50.88544 | 11.31224 | 9965 ft | 238 kts | 244° |
| 2026-05-04 18:58 | 50.87902 | 11.28801 | 9968 ft | 238 kts | 244° |
| 2026-05-04 18:58 | 50.87261 | 11.26375 | 9967 ft | 238 kts | 244° |
| 2026-05-04 18:59 | 50.86619 | 11.23955 | 9982 ft | 238 kts | 244° |
| 2026-05-04 18:59 | 50.85979 | 11.21541 | 9986 ft | 238 kts | 244° |
| 2026-05-04 18:59 | 50.85342 | 11.19138 | 9982 ft | 238 kts | 244° |
| 2026-05-04 18:59 | 50.84714 | 11.16775 | 9984 ft | 238 kts | 244° |
| 2026-05-04 19:00 | 50.84071 | 11.14356 | 9984 ft | 238 kts | 244° |
| 2026-05-04 19:00 | 50.83431 | 11.11934 | 9984 ft | 238 kts | 244° |
| 2026-05-04 19:00 | 50.82797 | 11.09515 | 9986 ft | 238 kts | 244° |
| 2026-05-04 19:00 | 50.82158 | 11.07084 | 9985 ft | 238 kts | 244° |
| 2026-05-04 19:01 | 50.81526 | 11.04685 | 9989 ft | 238 kts | 244° |
| 2026-05-04 19:01 | 50.80880 | 11.02272 | 9983 ft | 238 kts | 244° |
| 2026-05-04 19:01 | 50.80234 | 10.99891 | 9986 ft | 238 kts | 244° |
| 2026-05-04 19:01 | 50.79576 | 10.97477 | 9984 ft | 238 kts | 244° |
| 2026-05-04 19:02 | 50.78916 | 10.95070 | 9980 ft | 237 kts | 244° |
| 2026-05-04 19:02 | 50.78267 | 10.92701 | 9984 ft | 237 kts | 244° |
| 2026-05-04 19:02 | 50.77623 | 10.90359 | 9985 ft | 237 kts | 244° |
| 2026-05-04 19:02 | 50.76965 | 10.87962 | 9984 ft | 237 kts | 244° |
| 2026-05-04 19:03 | 50.76322 | 10.85617 | 9983 ft | 238 kts | 244° |
| 2026-05-04 19:03 | 50.75669 | 10.83241 | 9979 ft | 238 kts | 244° |
| 2026-05-04 19:03 | 50.75012 | 10.80850 | 9987 ft | 238 kts | 244° |
| 2026-05-04 19:03 | 50.74348 | 10.78448 | 9984 ft | 236 kts | 244° |
| 2026-05-04 19:04 | 50.73693 | 10.76090 | 9984 ft | 234 kts | 244° |
| 2026-05-04 19:04 | 50.73261 | 10.74534 | 9981 ft | 232 kts | 244° |
| 2026-05-04 19:04 | 50.72619 | 10.72207 | 9979 ft | 230 kts | 244° |
| 2026-05-04 19:04 | 50.71527 | 10.69383 | 9978 ft | 226 kts | 229° |
| 2026-05-04 19:05 | 50.70830 | 10.68154 | 9977 ft | 225 kts | 225° |
| 2026-05-04 19:05 | 50.69733 | 10.66401 | 9979 ft | 225 kts | 223° |
| 2026-05-04 19:05 | 50.68622 | 10.64671 | 9976 ft | 225 kts | 223° |
| 2026-05-04 19:05 | 50.67515 | 10.62928 | 9978 ft | 225 kts | 224° |
| 2026-05-04 19:06 | 50.66421 | 10.61173 | 9976 ft | 225 kts | 224° |
| 2026-05-04 19:06 | 50.65388 | 10.59491 | 9974 ft | 225 kts | 225° |
| 2026-05-04 19:06 | 50.64312 | 10.57717 | 9974 ft | 224 kts | 225° |
| 2026-05-04 19:06 | 50.63266 | 10.55979 | 9974 ft | 224 kts | 225° |
| 2026-05-04 19:07 | 50.62215 | 10.54225 | 9972 ft | 224 kts | 225° |
| 2026-05-04 19:07 | 50.61174 | 10.52485 | 9972 ft | 224 kts | 225° |
| 2026-05-04 19:07 | 50.60119 | 10.50722 | 9969 ft | 223 kts | 225° |
| 2026-05-04 19:07 | 50.59096 | 10.49013 | 9971 ft | 223 kts | 225° |
| 2026-05-04 19:08 | 50.58023 | 10.47222 | 9971 ft | 224 kts | 225° |
| 2026-05-04 19:08 | 50.56960 | 10.45450 | 9968 ft | 224 kts | 225° |
| 2026-05-04 19:08 | 50.55903 | 10.43691 | 9967 ft | 224 kts | 225° |
| 2026-05-04 19:08 | 50.54853 | 10.41945 | 9969 ft | 225 kts | 225° |
| 2026-05-04 19:09 | 50.53797 | 10.40190 | 9969 ft | 225 kts | 225° |
| 2026-05-04 19:09 | 50.52731 | 10.38421 | 9967 ft | 225 kts | 225° |
| 2026-05-04 19:09 | 50.51679 | 10.36674 | 9971 ft | 225 kts | 225° |
| 2026-05-04 19:09 | 50.50642 | 10.34953 | 9968 ft | 225 kts | 225° |
| 2026-05-04 19:10 | 50.49570 | 10.33176 | 9969 ft | 225 kts | 225° |
| 2026-05-04 19:10 | 50.48521 | 10.31437 | 9969 ft | 225 kts | 225° |
| 2026-05-04 19:10 | 50.47440 | 10.29648 | 9970 ft | 225 kts | 225° |
| 2026-05-04 19:10 | 50.46361 | 10.27864 | 9971 ft | 225 kts | 225° |
| 2026-05-04 19:11 | 50.45318 | 10.26141 | 9964 ft | 225 kts | 225° |
| 2026-05-04 19:11 | 50.44239 | 10.24358 | 9966 ft | 225 kts | 225° |
| 2026-05-04 19:11 | 50.43204 | 10.22649 | 9964 ft | 225 kts | 225° |
| 2026-05-04 19:11 | 50.42125 | 10.20868 | 9970 ft | 225 kts | 225° |
| 2026-05-04 19:12 | 50.41079 | 10.19143 | 9970 ft | 225 kts | 225° |
| 2026-05-04 19:12 | 50.38926 | 10.15595 | 9966 ft | 225 kts | 225° |
| 2026-05-04 19:12 | 50.37867 | 10.13853 | 9964 ft | 224 kts | 225° |
| 2026-05-04 19:13 | 50.36804 | 10.12105 | 9965 ft | 224 kts | 225° |
| 2026-05-04 19:13 | 50.35769 | 10.10403 | 9964 ft | 224 kts | 225° |
| 2026-05-04 19:13 | 50.34700 | 10.08644 | 9957 ft | 223 kts | 225° |
| 2026-05-04 19:13 | 50.33639 | 10.06898 | 9961 ft | 222 kts | 225° |
| 2026-05-04 19:14 | 50.32571 | 10.05143 | 9966 ft | 222 kts | 225° |
| 2026-05-04 19:14 | 50.31522 | 10.03420 | 9964 ft | 221 kts | 225° |
| 2026-05-04 19:14 | 50.30457 | 10.01672 | 9967 ft | 221 kts | 225° |
| 2026-05-04 19:14 | 50.29393 | 9.99926 | 9963 ft | 221 kts | 225° |
| 2026-05-04 19:15 | 50.28343 | 9.98207 | 9966 ft | 220 kts | 225° |
| 2026-05-04 19:15 | 50.27299 | 9.96497 | 9966 ft | 220 kts | 225° |
| 2026-05-04 19:15 | 50.26243 | 9.94771 | 9963 ft | 220 kts | 225° |
| 2026-05-04 19:15 | 50.25185 | 9.93043 | 9965 ft | 220 kts | 225° |
| 2026-05-04 19:16 | 50.24123 | 9.91312 | 9962 ft | 221 kts | 225° |
| 2026-05-04 19:16 | 50.23063 | 9.89586 | 9961 ft | 221 kts | 225° |
| 2026-05-04 19:16 | 50.21992 | 9.87844 | 9962 ft | 221 kts | 225° |
| 2026-05-04 19:16 | 50.20935 | 9.86126 | 9962 ft | 222 kts | 225° |
| 2026-05-04 19:17 | 50.19869 | 9.84396 | 9963 ft | 222 kts | 225° |
| 2026-05-04 19:17 | 50.18799 | 9.82660 | 9965 ft | 222 kts | 225° |
| 2026-05-04 19:17 | 50.17728 | 9.80923 | 9966 ft | 222 kts | 225° |
| 2026-05-04 19:17 | 50.16655 | 9.79185 | 9966 ft | 222 kts | 225° |
| 2026-05-04 19:18 | 50.15575 | 9.77432 | 9970 ft | 223 kts | 225° |
| 2026-05-04 19:18 | 50.14502 | 9.75690 | 9969 ft | 223 kts | 225° |
| 2026-05-04 19:18 | 50.13438 | 9.73966 | 9971 ft | 223 kts | 225° |
| 2026-05-04 19:18 | 50.12363 | 9.72224 | 9972 ft | 223 kts | 225° |
| 2026-05-04 19:19 | 50.11307 | 9.70516 | 9973 ft | 223 kts | 225° |
| 2026-05-04 19:19 | 50.10230 | 9.68776 | 9967 ft | 222 kts | 225° |
| 2026-05-04 19:19 | 50.09156 | 9.67041 | 9971 ft | 222 kts | 225° |
| 2026-05-04 19:19 | 50.08102 | 9.65337 | 9968 ft | 222 kts | 225° |
| 2026-05-04 19:20 | 50.07031 | 9.63608 | 9971 ft | 222 kts | 225° |
| 2026-05-04 19:20 | 50.05961 | 9.61883 | 9982 ft | 223 kts | 225° |
| 2026-05-04 19:20 | 50.04885 | 9.60147 | 9966 ft | 223 kts | 225° |
| 2026-05-04 19:20 | 50.03809 | 9.58415 | 9973 ft | 223 kts | 225° |
| 2026-05-04 19:21 | 50.02725 | 9.56673 | 9973 ft | 223 kts | 225° |
| 2026-05-04 19:21 | 50.01653 | 9.54951 | 9975 ft | 224 kts | 225° |
| 2026-05-04 19:21 | 50.00572 | 9.53214 | 9972 ft | 224 kts | 225° |
| 2026-05-04 19:21 | 49.99488 | 9.51475 | 9975 ft | 224 kts | 225° |
| 2026-05-04 19:22 | 49.98399 | 9.49727 | 9972 ft | 224 kts | 225° |
| 2026-05-04 19:22 | 49.97304 | 9.47974 | 9972 ft | 225 kts | 225° |
| 2026-05-04 19:22 | 49.96233 | 9.46260 | 9973 ft | 225 kts | 225° |
| 2026-05-04 19:22 | 49.95139 | 9.44510 | 9971 ft | 225 kts | 225° |
| 2026-05-04 19:23 | 49.94051 | 9.42769 | 9975 ft | 225 kts | 225° |
| 2026-05-04 19:23 | 49.92957 | 9.41019 | 9972 ft | 225 kts | 225° |
| 2026-05-04 19:23 | 49.91888 | 9.39311 | 9974 ft | 225 kts | 225° |
| 2026-05-04 19:23 | 49.90803 | 9.37580 | 9972 ft | 224 kts | 225° |
| 2026-05-04 19:24 | 49.89713 | 9.35841 | 9975 ft | 224 kts | 225° |
| 2026-05-04 19:24 | 49.88628 | 9.34109 | 9974 ft | 223 kts | 225° |
| 2026-05-04 19:24 | 49.87545 | 9.32381 | 9973 ft | 223 kts | 225° |
| 2026-05-04 19:24 | 49.86469 | 9.30666 | 9975 ft | 223 kts | 225° |
| 2026-05-04 19:25 | 49.85379 | 9.28931 | 9969 ft | 223 kts | 225° |
| 2026-05-04 19:25 | 49.84305 | 9.27225 | 9975 ft | 223 kts | 225° |
| 2026-05-04 19:25 | 49.83219 | 9.25501 | 9977 ft | 223 kts | 225° |
| 2026-05-04 19:25 | 49.82135 | 9.23779 | 9976 ft | 223 kts | 225° |
| 2026-05-04 19:26 | 49.81045 | 9.22049 | 9973 ft | 223 kts | 224° |
| 2026-05-04 19:26 | 49.79957 | 9.20327 | 9973 ft | 223 kts | 225° |
| 2026-05-04 19:26 | 49.78887 | 9.18632 | 9972 ft | 223 kts | 225° |
| 2026-05-04 19:26 | 49.77798 | 9.16908 | 9975 ft | 223 kts | 224° |
| 2026-05-04 19:27 | 49.76710 | 9.15188 | 9975 ft | 223 kts | 224° |
| 2026-05-04 19:27 | 49.75626 | 9.13476 | 9969 ft | 223 kts | 224° |
| 2026-05-04 19:27 | 49.74538 | 9.11760 | 9965 ft | 223 kts | 224° |
| 2026-05-04 19:27 | 49.73450 | 9.10049 | 9974 ft | 223 kts | 224° |
| 2026-05-04 19:28 | 49.72372 | 9.08353 | 9971 ft | 223 kts | 224° |
| 2026-05-04 19:28 | 49.71277 | 9.06631 | 9972 ft | 223 kts | 224° |
| 2026-05-04 19:28 | 49.70185 | 9.04914 | 9975 ft | 224 kts | 224° |
| 2026-05-04 19:28 | 49.69103 | 9.03211 | 9883 ft | 223 kts | 225° |
| 2026-05-04 19:29 | 49.68017 | 9.01498 | 9672 ft | 222 kts | 225° |
| 2026-05-04 19:29 | 49.66934 | 8.99789 | 9450 ft | 222 kts | 225° |
| 2026-05-04 19:29 | 49.65856 | 8.98090 | 9180 ft | 221 kts | 225° |
| 2026-05-04 19:29 | 49.64784 | 8.96402 | 8874 ft | 220 kts | 224° |
| 2026-05-04 19:30 | 49.63711 | 8.94716 | 8597 ft | 220 kts | 224° |
| 2026-05-04 19:30 | 49.62640 | 8.93035 | 8329 ft | 219 kts | 224° |
| 2026-05-04 19:30 | 49.61584 | 8.91381 | 8082 ft | 217 kts | 224° |
| 2026-05-04 19:30 | 49.60533 | 8.89733 | 7888 ft | 213 kts | 224° |
| 2026-05-04 19:31 | 49.59497 | 8.88106 | 7665 ft | 213 kts | 224° |
| 2026-05-04 19:31 | 49.58456 | 8.86477 | 7433 ft | 213 kts | 224° |
| 2026-05-04 19:31 | 49.57414 | 8.84848 | 7316 ft | 212 kts | 224° |
| 2026-05-04 19:31 | 49.56385 | 8.83244 | 7203 ft | 212 kts | 224° |
| 2026-05-04 19:32 | 49.55345 | 8.81622 | 7077 ft | 212 kts | 224° |
| 2026-05-04 19:32 | 49.54311 | 8.80010 | 7004 ft | 210 kts | 224° |
| 2026-05-04 19:32 | 49.53277 | 8.78400 | 6997 ft | 212 kts | 224° |
| 2026-05-04 19:32 | 49.52234 | 8.76778 | 6993 ft | 212 kts | 224° |
| 2026-05-04 19:33 | 49.51206 | 8.75181 | 6990 ft | 211 kts | 224° |
| 2026-05-04 19:33 | 49.50167 | 8.73565 | 6987 ft | 211 kts | 224° |
| 2026-05-04 19:33 | 49.49138 | 8.71964 | 6992 ft | 211 kts | 224° |
| 2026-05-04 19:33 | 49.48114 | 8.70373 | 6995 ft | 212 kts | 224° |
| 2026-05-04 19:34 | 49.47076 | 8.68760 | 6995 ft | 212 kts | 224° |
| 2026-05-04 19:34 | 49.46031 | 8.67151 | 6995 ft | 212 kts | 223° |
| 2026-05-04 19:34 | 49.44943 | 8.65614 | 6994 ft | 211 kts | 220° |
| 2026-05-04 19:34 | 49.43853 | 8.64127 | 6994 ft | 211 kts | 220° |
| 2026-05-04 19:35 | 49.42755 | 8.62624 | 6994 ft | 211 kts | 220° |
| 2026-05-04 19:35 | 49.41663 | 8.61116 | 6993 ft | 211 kts | 220° |
| 2026-05-04 19:35 | 49.40572 | 8.59601 | 6993 ft | 211 kts | 221° |
| 2026-05-04 19:35 | 49.39491 | 8.58096 | 6993 ft | 210 kts | 221° |
| 2026-05-04 19:36 | 49.38406 | 8.56584 | 6993 ft | 210 kts | 221° |
| 2026-05-04 19:36 | 49.37335 | 8.55091 | 6992 ft | 210 kts | 221° |
| 2026-05-04 19:36 | 49.36250 | 8.53578 | 6991 ft | 210 kts | 221° |
| 2026-05-04 19:36 | 49.35181 | 8.52052 | 6990 ft | 209 kts | 226° |
| 2026-05-04 19:37 | 49.34645 | 8.49990 | 6989 ft | 217 kts | 266° |
| 2026-05-04 19:37 | 49.35098 | 8.47789 | 6991 ft | 223 kts | 294° |
| 2026-05-04 19:37 | 49.35643 | 8.45616 | 6991 ft | 215 kts | 268° |
| 2026-05-04 19:37 | 49.35126 | 8.43587 | 6971 ft | 207 kts | 222° |
| 2026-05-04 19:38 | 49.33814 | 8.42870 | 6971 ft | 207 kts | 180° |
| 2026-05-04 19:38 | 49.32377 | 8.43142 | 6969 ft | 209 kts | 173° |
| 2026-05-04 19:38 | 49.30949 | 8.43559 | 6969 ft | 210 kts | 171° |
| 2026-05-04 19:38 | 49.29531 | 8.44020 | 6984 ft | 211 kts | 170° |
| 2026-05-04 19:39 | 49.28097 | 8.44507 | 6983 ft | 211 kts | 170° |
| 2026-05-04 19:39 | 49.26662 | 8.45005 | 6983 ft | 211 kts | 169° |
| 2026-05-04 19:39 | 49.25228 | 8.45509 | 6982 ft | 211 kts | 169° |
| 2026-05-04 19:39 | 49.23810 | 8.46010 | 6980 ft | 206 kts | 169° |
| 2026-05-04 19:40 | 49.22430 | 8.46502 | 6981 ft | 200 kts | 169° |
| 2026-05-04 19:40 | 49.21108 | 8.46972 | 6972 ft | 194 kts | 169° |
| 2026-05-04 19:40 | 49.19809 | 8.47422 | 6972 ft | 189 kts | 169° |
| 2026-05-04 19:40 | 49.18537 | 8.47742 | 6972 ft | 181 kts | 186° |
| 2026-05-04 19:41 | 49.17368 | 8.47134 | 6976 ft | 176 kts | 205° |
| 2026-05-04 19:41 | 49.16283 | 8.46272 | 6974 ft | 174 kts | 208° |
| 2026-05-04 19:41 | 49.15244 | 8.45373 | 6974 ft | 173 kts | 209° |
| 2026-05-04 19:41 | 49.14182 | 8.44422 | 6807 ft | 180 kts | 210° |
| 2026-05-04 19:42 | 49.13110 | 8.43446 | 6805 ft | 177 kts | 210° |
| 2026-05-04 19:42 | 49.12060 | 8.42482 | 6792 ft | 176 kts | 210° |
| 2026-05-04 19:42 | 49.11009 | 8.41515 | 6752 ft | 176 kts | 210° |
| 2026-05-04 19:42 | 49.09961 | 8.40590 | 6710 ft | 175 kts | 205° |
| 2026-05-04 19:43 | 49.08770 | 8.40226 | 6634 ft | 176 kts | 187° |
| 2026-05-04 19:43 | 49.07546 | 8.40062 | 6594 ft | 176 kts | 185° |
| 2026-05-04 19:43 | 49.06322 | 8.39937 | 6555 ft | 176 kts | 184° |
| 2026-05-04 19:43 | 49.05115 | 8.39834 | 6517 ft | 176 kts | 184° |
| 2026-05-04 19:44 | 49.03889 | 8.39743 | 6487 ft | 176 kts | 184° |
| 2026-05-04 19:44 | 49.02662 | 8.39660 | 6450 ft | 176 kts | 184° |
| 2026-05-04 19:44 | 49.01439 | 8.39577 | 6388 ft | 175 kts | 184° |
| 2026-05-04 19:44 | 49.00233 | 8.39583 | 6252 ft | 176 kts | 169° |
| 2026-05-04 19:45 | 48.99237 | 8.40644 | 6115 ft | 182 kts | 125° |
| 2026-05-04 19:45 | 48.99026 | 8.42540 | 5992 ft | 190 kts | 79° |
| 2026-05-04 19:45 | 48.99797 | 8.44151 | 5874 ft | 195 kts | 31° |
| 2026-05-04 19:45 | 49.01085 | 8.44661 | 5560 ft | 191 kts | 5° |
| 2026-05-04 19:46 | 49.02416 | 8.44869 | 5176 ft | 194 kts | 7° |
| 2026-05-04 19:46 | 49.03721 | 8.45207 | 5093 ft | 186 kts | 12° |
| 2026-05-04 19:46 | 49.04963 | 8.45631 | 4722 ft | 182 kts | 13° |
| 2026-05-04 19:46 | 49.06172 | 8.46062 | 4420 ft | 176 kts | 13° |
| 2026-05-04 19:47 | 49.06959 | 8.46331 | 4264 ft | 171 kts | 12° |
| 2026-05-04 19:47 | 49.08085 | 8.46702 | 4138 ft | 160 kts | 12° |
| 2026-05-04 19:47 | 49.09467 | 8.47155 | 4056 ft | 149 kts | 12° |
| 2026-05-04 19:47 | 49.10480 | 8.47492 | 3910 ft | 147 kts | 12° |
| 2026-05-04 19:48 | 49.11140 | 8.47714 | 3763 ft | 146 kts | 13° |
| 2026-05-04 19:48 | 49.12113 | 8.48040 | 3603 ft | 140 kts | 13° |
| 2026-05-04 19:48 | 49.13047 | 8.48352 | 3444 ft | 136 kts | 13° |
| 2026-05-04 19:48 | 49.13974 | 8.48662 | 3278 ft | 134 kts | 13° |
| 2026-05-04 19:49 | 49.14870 | 8.48961 | 3105 ft | 133 kts | 12° |
| 2026-05-04 19:49 | 49.15799 | 8.49270 | 2942 ft | 136 kts | 12° |
| 2026-05-04 19:49 | 49.16715 | 8.49576 | 2786 ft | 136 kts | 12° |
| 2026-05-04 19:49 | 49.17644 | 8.49871 | 2633 ft | 137 kts | 8° |
| 2026-05-04 19:50 | 49.18580 | 8.49828 | 2608 ft | 133 kts | 351° |
| 2026-05-04 19:50 | 49.19486 | 8.49547 | 2641 ft | 135 kts | 347° |
| 2026-05-04 19:50 | 49.20408 | 8.49211 | 2655 ft | 137 kts | 347° |
| 2026-05-04 19:50 | 49.21344 | 8.48854 | 2658 ft | 140 kts | 346° |
| 2026-05-04 19:51 | 49.22294 | 8.48480 | 2633 ft | 141 kts | 346° |
| 2026-05-04 19:51 | 49.23205 | 8.48119 | 2486 ft | 130 kts | 347° |
| 2026-05-04 19:51 | 49.24060 | 8.47778 | 2332 ft | 124 kts | 346° |
| 2026-05-04 19:51 | 49.24876 | 8.47445 | 2173 ft | 119 kts | 346° |
| 2026-05-04 19:52 | 49.25617 | 8.47139 | 2035 ft | 105 kts | 342° |
| 2026-05-04 19:52 | 49.26310 | 8.46775 | 1580 ft | 109 kts | 340° |
| 2026-05-04 19:52 | 49.27018 | 8.46392 | 1222 ft | 106 kts | 333° |
| 2026-05-04 19:52 | 49.27709 | 8.46051 | 859 ft | 99 kts | 349° |
| 2026-05-04 19:53 | 49.28370 | 8.45934 | 633 ft | 95 kts | 346° |
| 2026-05-04 19:53 | 49.29011 | 8.45751 | 437 ft | 93 kts | 342° |
| 2026-05-04 19:53 | 49.29592 | 8.45540 | 332 ft | 80 kts | 340° |
| 2026-05-04 19:53 | 49.30090 | 8.45325 | 327 ft | 76 kts | 347° |
| 2026-05-04 19:54 | 49.30520 | 8.45159 | 325 ft | 52 kts | 343° |
| 2026-05-04 19:54 | 49.30704 | 8.45085 | 328 ft | 3 kts | 345° |
| 2026-05-04 19:54 | 49.30713 | 8.45082 | 328 ft | 0 kts | 356° |
| 2026-05-04 19:55 | 49.30702 | 8.45078 | 328 ft | 7 kts | 24° |
| 2026-05-04 19:55 | 49.30722 | 8.45075 | 329 ft | 11 kts | 349° |
| 2026-05-04 19:55 | 49.30814 | 8.45038 | 330 ft | 15 kts | 354° |
| 2026-05-04 19:55 | 49.30810 | 8.45149 | 329 ft | 22 kts | 164° |
| 2026-05-04 19:56 | 49.30688 | 8.45214 | 328 ft | 12 kts | 161° |
| 2026-05-04 19:56 | 49.30619 | 8.45243 | 328 ft | 10 kts | 166° |
| 2026-05-04 19:56 | 49.30554 | 8.45269 | 328 ft | 9 kts | 165° |
| 2026-05-04 19:56 | 49.30495 | 8.45293 | 326 ft | 6 kts | 167° |
| 2026-05-04 19:57 | 49.30485 | 8.45297 | 327 ft | 0 kts | 166° |
| 2026-05-04 19:57 | 49.30481 | 8.45299 | 328 ft | 4 kts | 149° |
| 2026-05-04 19:57 | 49.30479 | 8.45323 | 328 ft | 2 kts | 66° |
| 2026-05-04 19:57 | 49.30480 | 8.45328 | 328 ft | 2 kts | 64° |
| 2026-05-04 19:58 | 49.30451 | 8.45369 | 328 ft | 7 kts | 169° |
| 2026-05-04 19:58 | 49.30403 | 8.45386 | 327 ft | 7 kts | 181° |
| 2026-05-04 19:58 | 49.30377 | 8.45341 | 327 ft | 6 kts | 213° |
| 2026-05-04 19:58 | 49.30361 | 8.45346 | 328 ft | 3 kts | 163° |
| 2026-05-04 19:59 | 49.30332 | 8.45358 | 326 ft | 4 kts | 165° |
| 2026-05-04 19:59 | 49.30312 | 8.45370 | 328 ft | 4 kts | 139° |
| 2026-05-04 19:59 | 49.30307 | 8.45412 | 328 ft | 5 kts | 74° |
| 2026-05-04 19:59 | 49.30325 | 8.45442 | 328 ft | 4 kts | 1° |
| 2026-05-04 20:00 | 49.30339 | 8.45430 | 327 ft | 1 kts | 292° |
| 2026-05-04 20:00 | 49.30334 | 8.45411 | 325 ft | 4 kts | 232° |
| 2026-05-04 20:00 | 49.30332 | 8.45404 | 326 ft | 0 kts | 249° |
| 2026-05-04 20:04 | 49.30318 | 8.45411 | 326 ft | 0 kts | 249° |
| 2026-05-04 20:04 | 49.30321 | 8.45407 | 326 ft | 0 kts | 281° |
| 2026-05-04 20:04 | 49.30314 | 8.45444 | 326 ft | 0 kts | 324° |
| 2026-05-04 20:05 | 49.30324 | 8.45414 | 326 ft | 0 kts | 256° |